createdAt,value
2022-10-15T00:00:29.598Z,20.67
2022-10-15T00:02:57.474Z,20.50
2022-10-15T00:05:25.597Z,20.58
2022-10-15T00:07:53.779Z,20.52
2022-10-15T00:10:22.030Z,20.25
2022-10-15T00:12:50.476Z,20.30
2022-10-15T00:15:18.411Z,20.60
2022-10-15T00:17:47.471Z,20.88
2022-10-15T00:20:16.031Z,21.48
2022-10-15T00:22:43.721Z,21.77
2022-10-15T00:25:13.679Z,19.92
2022-10-15T00:27:41.419Z,21.75
2022-10-15T00:30:10.620Z,20.55
2022-10-15T00:32:38.670Z,22.38
2022-10-15T00:35:09.079Z,22.35
2022-10-15T00:37:37.026Z,23.30
2022-10-15T00:40:05.332Z,22.63
2022-10-15T00:42:33.531Z,23.38
2022-10-15T00:45:01.398Z,22.63
2022-10-15T00:47:36.127Z,24.02
2022-10-15T00:50:09.388Z,22.58
2022-10-15T00:52:45.954Z,23.67
2022-10-15T00:55:17.283Z,24.25
2022-10-15T00:57:47.573Z,23.35
2022-10-15T01:00:16.614Z,22.52
2022-10-15T01:02:45.982Z,24.38
2022-10-15T01:05:17.222Z,22.02
2022-10-15T01:07:45.570Z,22.42
2022-10-15T01:10:14.471Z,24.35
2022-10-15T01:12:58.398Z,23.90
2022-10-15T01:15:30.310Z,22.63
2022-10-15T01:18:01.494Z,23.38
2022-10-15T01:20:50.254Z,22.80
2022-10-15T01:23:48.138Z,23.23
2022-10-15T01:26:35.914Z,24.13
2022-10-15T01:29:15.613Z,24.23
2022-10-15T01:31:52.841Z,23.80
2022-10-15T01:34:24.350Z,22.95
2022-10-15T01:36:57.650Z,24.23
2022-10-15T01:39:31.426Z,23.63
2022-10-15T01:42:03.267Z,23.52
2022-10-15T01:44:35.562Z,23.60
2022-10-15T01:47:07.689Z,23.42
2022-10-15T01:49:42.669Z,23.50
2022-10-15T01:52:16.023Z,23.02
2022-10-15T01:54:45.265Z,23.33
2022-10-15T01:57:14.943Z,22.33
2022-10-15T01:59:45.735Z,21.77
2022-10-15T02:02:15.331Z,23.05
2022-10-15T02:04:43.019Z,22.55
2022-10-15T02:07:17.033Z,21.70
2022-10-15T02:09:55.807Z,22.30
2022-10-15T02:12:38.916Z,21.40
2022-10-15T02:15:13.069Z,23.17
2022-10-15T02:17:52.778Z,23.60
2022-10-15T02:20:23.948Z,23.95
2022-10-15T02:22:57.165Z,23.50
2022-10-15T02:25:26.840Z,24.88
2022-10-15T02:27:58.452Z,24.48
2022-10-15T02:30:28.801Z,24.55
2022-10-15T02:33:01.004Z,23.98
2022-10-15T02:35:29.411Z,24.15
2022-10-15T02:38:03.567Z,24.05
2022-10-15T02:40:35.885Z,23.08
2022-10-15T02:43:06.610Z,24.58
2022-10-15T02:45:34.274Z,22.73
2022-10-15T02:48:03.514Z,22.55
2022-10-15T02:50:31.529Z,22.23
2022-10-15T02:52:59.207Z,21.30
2022-10-15T02:55:27.303Z,21.60
2022-10-15T02:57:55.012Z,21.65
2022-10-15T03:00:23.290Z,21.17
2022-10-15T03:02:51.130Z,22.45
2022-10-15T03:05:20.947Z,23.35
2022-10-15T03:07:48.625Z,21.23
2022-10-15T03:10:17.075Z,22.58
2022-10-15T03:12:44.726Z,22.42
2022-10-15T03:15:12.607Z,23.08
2022-10-15T03:17:40.646Z,21.15
2022-10-15T03:20:08.871Z,22.17
2022-10-15T03:22:37.934Z,20.92
2022-10-15T03:25:06.883Z,21.05
2022-10-15T03:27:34.559Z,21.15
2022-10-15T03:30:02.843Z,20.25
2022-10-15T03:32:33.019Z,20.52
2022-10-15T03:35:03.742Z,19.50
2022-10-15T03:37:31.426Z,19.02
2022-10-15T03:40:01.731Z,20.25
2022-10-15T03:42:29.964Z,20.38
2022-10-15T03:44:57.634Z,19.85
2022-10-15T03:47:25.763Z,19.38
2022-10-15T03:49:53.470Z,19.30
2022-10-15T03:52:21.341Z,18.58
2022-10-15T03:54:49.613Z,18.42
2022-10-15T03:57:18.640Z,16.42
2022-10-15T03:59:46.751Z,17.30
2022-10-15T04:02:14.423Z,18.00
2022-10-15T04:04:42.101Z,17.15
2022-10-15T04:07:10.235Z,16.17
2022-10-15T04:09:37.905Z,17.00
2022-10-15T04:12:06.547Z,15.18
2022-10-15T04:14:35.569Z,15.13
2022-10-15T04:17:03.255Z,14.45
2022-10-15T04:19:31.307Z,13.50
2022-10-15T04:21:59.106Z,13.50
2022-10-15T04:24:27.460Z,13.20
2022-10-15T04:26:55.182Z,12.38
2022-10-15T04:29:22.872Z,12.80
2022-10-15T04:31:52.364Z,13.07
2022-10-15T04:34:20.161Z,12.43
2022-10-15T04:36:47.843Z,12.15
2022-10-15T04:39:16.125Z,11.65
2022-10-15T04:41:43.841Z,12.45
2022-10-15T04:44:11.635Z,12.18
2022-10-15T04:46:39.377Z,11.00
2022-10-15T04:49:08.616Z,10.95
2022-10-15T04:51:37.613Z,11.43
2022-10-15T04:54:05.906Z,10.35
2022-10-15T04:56:34.043Z,10.02
2022-10-15T04:59:01.749Z,10.32
2022-10-15T05:01:29.490Z,9.30
2022-10-15T05:03:57.574Z,10.80
2022-10-15T05:06:26.647Z,9.40
2022-10-15T05:08:54.867Z,9.20
2022-10-15T05:11:24.693Z,9.15
2022-10-15T05:13:53.060Z,8.75
2022-10-15T05:16:23.190Z,9.68
2022-10-15T05:18:52.194Z,8.93
2022-10-15T05:21:21.251Z,9.18
2022-10-15T05:23:50.780Z,8.35
2022-10-15T05:26:21.616Z,9.10
2022-10-15T05:28:49.611Z,7.97
2022-10-15T05:31:21.194Z,8.95
2022-10-15T05:33:49.461Z,8.50
2022-10-15T05:36:19.376Z,8.73
2022-10-15T05:38:48.891Z,7.95
2022-10-15T05:41:18.198Z,7.88
2022-10-15T05:43:47.914Z,7.90
2022-10-15T05:46:16.540Z,8.07
2022-10-15T05:48:46.022Z,8.30
2022-10-15T05:51:14.704Z,7.60
2022-10-15T05:53:43.229Z,7.32
2022-10-15T05:56:11.110Z,7.45
2022-10-15T05:58:41.281Z,7.70
2022-10-15T06:01:10.854Z,7.63
2022-10-15T06:03:39.684Z,7.90
2022-10-15T06:06:15.120Z,7.63
2022-10-15T06:11:10.874Z,7.30
2022-10-15T06:13:41.513Z,7.13
2022-10-15T06:16:10.465Z,6.38
2022-10-15T06:18:39.411Z,7.78
2022-10-15T06:21:07.884Z,7.93
2022-10-15T06:23:37.452Z,7.65
2022-10-15T06:26:06.081Z,7.70
2022-10-15T06:28:34.446Z,7.40
2022-10-15T06:31:03.886Z,7.00
2022-10-15T06:33:32.142Z,7.32
2022-10-15T06:36:03.793Z,7.22
2022-10-15T06:38:32.015Z,7.47
2022-10-15T06:41:00.057Z,7.00
2022-10-15T06:43:31.014Z,7.45
2022-10-15T06:46:00.935Z,7.47
2022-10-15T06:48:30.471Z,7.00
2022-10-15T06:51:00.735Z,7.40
2022-10-15T06:53:28.986Z,7.75
2022-10-15T06:55:58.389Z,7.28
2022-10-15T06:58:26.054Z,7.68
2022-10-15T07:01:07.564Z,7.85
2022-10-15T07:03:38.877Z,7.38
2022-10-15T07:06:10.938Z,7.90
2022-10-15T07:08:41.630Z,7.35
2022-10-15T07:11:11.394Z,7.97
2022-10-15T07:13:39.443Z,7.13
2022-10-15T07:16:08.536Z,7.28
2022-10-15T07:18:38.399Z,7.03
2022-10-15T07:21:08.659Z,6.80
2022-10-15T07:23:36.650Z,7.15
2022-10-15T07:26:04.408Z,6.40
2022-10-15T07:28:32.074Z,6.22
2022-10-15T07:31:03.121Z,6.38
2022-10-15T07:33:31.167Z,5.78
2022-10-15T07:36:00.537Z,5.72
2022-10-15T07:38:28.234Z,6.07
2022-10-15T07:40:59.273Z,5.07
2022-10-15T07:43:27.999Z,5.00
2022-10-15T07:45:56.249Z,4.97
2022-10-15T07:48:25.599Z,6.03
2022-10-15T07:50:56.639Z,4.43
2022-10-15T07:53:26.286Z,4.28
2022-10-15T07:55:54.207Z,2.95
2022-10-15T07:58:21.875Z,3.65
2022-10-15T08:00:50.145Z,2.60
2022-10-15T08:03:17.773Z,2.63
2022-10-15T08:05:45.903Z,2.38
2022-10-15T08:08:13.546Z,2.50
2022-10-15T08:10:42.639Z,1.90
2022-10-15T08:13:10.791Z,2.17
2022-10-15T08:15:40.166Z,2.00
2022-10-15T08:18:08.353Z,1.98
2022-10-15T08:20:36.585Z,1.73
2022-10-15T08:23:05.092Z,1.55
2022-10-15T08:25:33.730Z,1.50
2022-10-15T08:28:02.801Z,1.30
2022-10-15T08:30:31.227Z,1.23
2022-10-15T08:32:58.995Z,1.40
2022-10-15T08:35:28.284Z,0.77
2022-10-15T08:37:56.699Z,0.90
2022-10-15T08:40:24.376Z,0.82
2022-10-15T08:42:52.721Z,0.82
2022-10-15T08:45:28.338Z,0.90
2022-10-15T08:48:02.249Z,0.80
2022-10-15T08:50:42.591Z,1.10
2022-10-15T08:53:15.040Z,0.85
2022-10-15T08:55:45.838Z,0.82
2022-10-15T08:58:18.674Z,0.70
2022-10-15T09:00:53.118Z,0.88
2022-10-15T09:03:35.515Z,0.77
2022-10-15T09:06:10.453Z,0.80
2022-10-15T09:08:46.747Z,0.55
2022-10-15T09:11:20.231Z,0.60
2022-10-15T09:13:49.016Z,0.73
2022-10-15T09:16:21.231Z,0.68
2022-10-15T09:18:53.483Z,0.47
2022-10-15T09:21:23.813Z,0.57
2022-10-15T09:23:52.935Z,0.80
2022-10-15T09:27:27.449Z,0.45
2022-10-15T09:30:04.837Z,0.60
2022-10-15T09:32:39.663Z,0.57
2022-10-15T09:35:19.241Z,0.60
2022-10-15T09:37:53.938Z,0.60
2022-10-15T09:40:38.871Z,0.50
2022-10-15T09:43:08.273Z,0.70
2022-10-15T09:45:36.745Z,0.50
2022-10-15T09:48:17.556Z,0.60
2022-10-15T09:50:51.614Z,0.80
2022-10-15T09:53:28.230Z,0.60
2022-10-15T09:56:08.483Z,0.60
2022-10-15T09:58:41.349Z,0.90
2022-10-15T10:01:17.799Z,0.47
2022-10-15T10:03:53.573Z,4.65
2022-10-15T10:06:22.545Z,2.88
2022-10-15T10:08:53.043Z,8.02
2022-10-15T10:11:21.768Z,10.75
2022-10-15T10:13:54.759Z,6.63
2022-10-15T10:16:23.701Z,4.03
2022-10-15T10:19:13.555Z,2.83
2022-10-15T10:21:43.281Z,2.85
2022-10-15T10:24:28.301Z,2.25
2022-10-15T10:26:56.644Z,0.93
2022-10-15T10:29:34.468Z,1.00
2022-10-15T10:32:12.261Z,1.48
2022-10-15T10:34:48.724Z,1.55
2022-10-15T11:23:35.928Z,2.45
2022-10-15T11:26:14.783Z,3.25
2022-10-15T11:29:09.463Z,2.65
2022-10-15T13:27:47.635Z,0.70
2022-10-15T13:30:16.803Z,0.40
2022-10-15T13:32:48.322Z,0.70
2022-10-15T13:35:22.127Z,9.40
2022-10-15T13:37:51.013Z,1.30
2022-10-15T13:40:22.338Z,0.80
2022-10-15T13:43:01.748Z,0.70
2022-10-15T13:45:30.172Z,4.95
2022-10-15T13:47:58.143Z,1.13
2022-10-15T13:50:28.210Z,0.65
2022-10-15T13:53:00.355Z,0.75
2022-10-15T13:55:30.722Z,0.47
2022-10-15T13:58:04.419Z,0.98
2022-10-15T14:00:34.526Z,0.50
2022-10-15T14:03:09.789Z,0.98
2022-10-15T14:05:37.849Z,0.80
2022-10-15T14:08:06.043Z,0.77
2022-10-15T14:10:33.850Z,0.60
2022-10-15T14:13:03.378Z,0.85
2022-10-15T14:18:36.075Z,1.08
2022-10-15T14:21:04.938Z,0.50
2022-10-15T14:23:33.014Z,0.60
2022-10-15T14:26:03.557Z,0.73
2022-10-15T14:28:35.303Z,0.63
2022-10-15T14:31:03.941Z,0.90
2022-10-15T14:33:44.766Z,0.90
2022-10-15T14:36:23.539Z,0.70
2022-10-15T14:38:53.669Z,0.65
2022-10-15T14:41:30.580Z,3.70
2022-10-15T14:44:05.201Z,0.90
2022-10-15T14:46:39.659Z,0.95
2022-10-15T14:49:22.713Z,1.43
2022-10-15T14:51:56.448Z,0.98
2022-10-15T14:54:30.202Z,126.82
2022-10-15T14:56:59.235Z,34.55
2022-10-15T14:59:33.370Z,14.32
2022-10-15T15:02:03.883Z,4.82
2022-10-15T15:04:43.090Z,3.55
2022-10-15T15:07:17.679Z,1.35
2022-10-15T15:09:49.291Z,1.13
2022-10-15T15:12:24.232Z,0.80
2022-10-15T15:14:56.499Z,1.25
2022-10-15T15:17:26.569Z,0.90
2022-10-15T15:19:56.318Z,0.75
2022-10-15T15:22:29.512Z,1.38
2022-10-15T15:24:59.047Z,1.20
2022-10-15T15:27:28.916Z,0.80
2022-10-15T15:29:59.632Z,1.27
2022-10-15T15:32:27.810Z,0.75
2022-10-15T15:34:58.120Z,0.77
2022-10-15T15:37:29.287Z,1.10
2022-10-15T15:39:57.125Z,1.45
2022-10-15T15:42:26.917Z,1.05
2022-10-15T15:44:54.926Z,1.60
2022-10-15T15:47:24.186Z,2.55
2022-10-15T15:49:52.394Z,3.13
2022-10-15T15:52:20.286Z,3.45
2022-10-15T15:54:48.923Z,1.92
2022-10-15T15:57:16.705Z,1.80
2022-10-15T15:59:44.537Z,1.40
2022-10-15T16:02:13.255Z,1.02
2022-10-15T16:04:42.509Z,1.73
2022-10-15T16:07:13.292Z,0.90
2022-10-15T16:09:41.774Z,1.40
2022-10-15T16:12:09.754Z,0.90
2022-10-15T16:14:38.007Z,0.93
2022-10-15T16:17:05.949Z,1.13
2022-10-15T16:19:34.271Z,1.10
2022-10-15T16:22:03.825Z,1.45
2022-10-15T16:24:31.863Z,1.33
2022-10-15T16:26:59.765Z,1.13
2022-10-15T16:29:27.731Z,1.17
2022-10-15T16:31:55.692Z,1.27
2022-10-15T16:34:24.803Z,1.60
2022-10-15T16:36:52.645Z,4.28
2022-10-15T16:39:22.567Z,2.40
2022-10-15T16:41:50.489Z,1.75
2022-10-15T16:44:18.314Z,1.00
2022-10-15T16:46:46.180Z,1.30
2022-10-15T16:49:14.216Z,1.65
2022-10-15T16:51:43.732Z,1.88
2022-10-15T16:54:14.006Z,1.50
